createdAt,value
2024-01-11T00:00:36.997Z,22.70
2024-01-11T00:03:03.902Z,27.80
2024-01-11T00:05:30.793Z,25.00
2024-01-11T00:07:57.571Z,27.73
2024-01-11T00:10:24.291Z,22.60
2024-01-11T00:12:51.148Z,26.13
2024-01-11T00:15:18.305Z,20.27
2024-01-11T00:17:45.142Z,21.80
2024-01-11T00:20:12.298Z,26.27
2024-01-11T00:22:38.975Z,25.88
2024-01-11T00:25:06.214Z,22.50
2024-01-11T00:27:32.901Z,23.42
2024-01-11T00:29:59.877Z,24.05
2024-01-11T00:32:29.992Z,25.20
2024-01-11T00:34:56.788Z,22.40
2024-01-11T00:37:23.688Z,19.88
2024-01-11T00:39:52.214Z,20.08
2024-01-11T00:42:18.790Z,20.90
2024-01-11T00:44:46.602Z,22.27
2024-01-11T00:47:13.375Z,27.85
2024-01-11T00:49:40.024Z,20.15
2024-01-11T00:52:07.170Z,28.00
2024-01-11T00:54:33.824Z,26.30
2024-01-11T00:57:00.401Z,25.20
2024-01-11T00:59:27.089Z,27.67
2024-01-11T01:01:53.754Z,22.55
2024-01-11T01:04:20.413Z,22.67
2024-01-11T01:06:47.088Z,19.90
2024-01-11T01:09:14.953Z,25.40
2024-01-11T01:14:08.187Z,22.38
2024-01-11T01:16:34.876Z,23.17
2024-01-11T01:19:01.729Z,18.25
2024-01-11T01:21:29.409Z,22.17
2024-01-11T01:23:56.136Z,22.63
2024-01-11T01:26:22.829Z,21.88
2024-01-11T01:28:49.449Z,23.98
2024-01-11T01:31:16.141Z,21.30
2024-01-11T01:33:43.027Z,29.95
2024-01-11T01:36:11.589Z,18.38
2024-01-11T01:38:38.449Z,20.95
2024-01-11T01:41:05.188Z,21.52
2024-01-11T01:43:31.820Z,23.35
2024-01-11T01:45:59.667Z,22.88
2024-01-11T01:50:53.569Z,17.65
2024-01-11T01:53:24.178Z,19.70
2024-01-11T01:55:53.727Z,26.52
2024-01-11T01:58:21.783Z,19.25
2024-01-11T02:00:52.263Z,19.10
2024-01-11T02:03:19.470Z,19.50
2024-01-11T02:05:46.586Z,24.05
2024-01-11T02:08:18.759Z,20.77
2024-01-11T02:10:47.198Z,27.00
2024-01-11T02:13:16.569Z,23.98
2024-01-11T02:15:44.207Z,24.48
2024-01-11T02:18:11.543Z,24.30
2024-01-11T02:20:38.256Z,24.60
2024-01-11T02:23:16.155Z,21.42
2024-01-11T02:25:42.765Z,18.77
2024-01-11T02:28:09.850Z,22.30
2024-01-11T02:30:37.631Z,20.30
2024-01-11T02:33:05.706Z,21.90
2024-01-11T02:35:33.035Z,20.92
2024-01-11T02:38:00.991Z,25.38
2024-01-11T02:42:54.542Z,14.90
2024-01-11T02:45:21.384Z,23.40
2024-01-11T02:47:48.033Z,21.20
2024-01-11T02:50:14.793Z,23.42
2024-01-11T02:52:41.413Z,24.20
2024-01-11T02:55:09.692Z,20.58
2024-01-11T02:57:36.268Z,25.30
2024-01-11T03:00:02.907Z,19.55
2024-01-11T03:02:29.869Z,20.05
2024-01-11T03:04:56.518Z,23.00
2024-01-11T03:07:23.356Z,27.73
2024-01-11T03:09:50.054Z,15.90
2024-01-11T03:12:16.595Z,16.20
2024-01-11T03:14:43.286Z,23.55
2024-01-11T03:17:10.274Z,25.55
2024-01-11T03:19:42.173Z,20.42
2024-01-11T03:22:09.144Z,17.55
2024-01-11T03:24:40.382Z,22.35
2024-01-11T03:27:07.289Z,22.08
2024-01-11T03:29:34.128Z,23.55
2024-01-11T03:32:00.970Z,23.33
2024-01-11T03:34:27.712Z,19.02
2024-01-11T03:36:54.358Z,19.70
2024-01-11T03:39:20.962Z,21.73
2024-01-11T03:41:47.886Z,28.42
2024-01-11T03:44:14.909Z,22.45
2024-01-11T03:46:41.765Z,21.92
2024-01-11T03:49:11.253Z,22.92
2024-01-11T03:51:38.002Z,17.80
2024-01-11T03:54:07.553Z,22.98
2024-01-11T03:56:35.535Z,20.95
2024-01-11T03:59:02.256Z,19.48
2024-01-11T04:01:29.762Z,21.67
2024-01-11T04:03:56.564Z,18.02
2024-01-11T04:06:25.350Z,18.42
2024-01-11T04:08:52.382Z,19.25
2024-01-11T04:11:20.140Z,19.75
2024-01-11T04:13:46.882Z,16.85
2024-01-11T04:16:13.668Z,21.17
2024-01-11T04:18:40.442Z,16.73
2024-01-11T04:21:07.103Z,23.63
2024-01-11T04:23:33.716Z,16.45
2024-01-11T04:26:00.552Z,19.92
2024-01-11T04:28:27.199Z,16.92
2024-01-11T04:30:54.655Z,18.10
2024-01-11T04:33:22.995Z,18.02
2024-01-11T04:35:49.940Z,16.88
2024-01-11T04:38:16.713Z,20.88
2024-01-11T04:40:43.522Z,20.08
2024-01-11T04:43:10.353Z,18.70
2024-01-11T04:45:37.057Z,18.65
2024-01-11T04:48:04.121Z,23.15
2024-01-11T04:50:31.015Z,22.25
2024-01-11T04:52:57.886Z,23.75
2024-01-11T04:55:24.539Z,27.27
2024-01-11T04:57:51.207Z,20.52
2024-01-11T05:00:18.240Z,20.52
2024-01-11T05:02:44.955Z,18.15
2024-01-11T05:05:11.858Z,23.25
2024-01-11T05:07:39.264Z,20.20
2024-01-11T05:10:06.733Z,25.02
2024-01-11T05:12:33.506Z,22.95
2024-01-11T05:15:00.249Z,19.25
2024-01-11T05:17:28.100Z,17.55
2024-01-11T05:19:55.154Z,20.52
2024-01-11T05:22:23.267Z,23.90
2024-01-11T05:24:50.016Z,20.95
2024-01-11T05:27:17.019Z,22.42
2024-01-11T05:29:43.878Z,23.40
2024-01-11T05:32:11.249Z,24.70
2024-01-11T05:34:38.196Z,22.45
2024-01-11T05:37:05.121Z,24.75
2024-01-11T05:39:32.988Z,21.92
2024-01-11T05:41:59.642Z,23.45
2024-01-11T05:44:26.408Z,21.77
2024-01-11T05:46:53.045Z,20.52
2024-01-11T05:49:20.068Z,23.92
2024-01-11T05:51:46.692Z,23.70
2024-01-11T05:54:13.378Z,27.08
2024-01-11T05:56:40.138Z,25.60
2024-01-11T05:59:07.094Z,20.38
2024-01-11T06:01:33.840Z,21.40
2024-01-11T06:04:00.598Z,23.85
2024-01-11T06:06:27.344Z,23.98
2024-01-11T06:08:54.107Z,21.10
2024-01-11T06:11:20.891Z,22.65
2024-01-11T06:13:48.440Z,24.88
2024-01-11T06:16:15.241Z,22.13
2024-01-11T06:18:42.175Z,30.73
2024-01-11T06:21:08.921Z,27.90
2024-01-11T06:23:35.584Z,24.40
2024-01-11T06:26:02.242Z,15.75
2024-01-11T06:28:29.377Z,22.33
2024-01-11T06:30:56.093Z,26.98
2024-01-11T06:33:22.950Z,24.17
2024-01-11T06:35:50.970Z,22.65
2024-01-11T06:38:17.845Z,21.63
2024-01-11T06:40:44.817Z,28.20
2024-01-11T06:43:11.434Z,22.52
2024-01-11T06:45:38.143Z,21.20
2024-01-11T06:48:05.303Z,20.75
2024-01-11T06:50:32.000Z,23.67
2024-01-11T06:52:58.913Z,23.65
2024-01-11T06:55:25.543Z,20.45
2024-01-11T06:57:52.130Z,23.27
2024-01-11T07:00:19.075Z,22.95
2024-01-11T07:02:45.982Z,21.73
2024-01-11T07:05:13.773Z,25.35
2024-01-11T07:07:40.566Z,26.90
2024-01-11T07:10:07.603Z,22.98
2024-01-11T07:12:34.421Z,20.10
2024-01-11T07:15:01.140Z,24.52
2024-01-11T07:17:28.054Z,24.92
2024-01-11T07:19:54.781Z,23.40
2024-01-11T07:22:21.581Z,21.25
2024-01-11T07:24:48.220Z,19.30
2024-01-11T07:27:15.741Z,15.50
2024-01-11T07:29:42.721Z,18.55
2024-01-11T07:32:09.770Z,23.10
2024-01-11T07:34:36.557Z,17.58
2024-01-11T07:37:03.458Z,16.67
2024-01-11T07:39:32.230Z,17.27
2024-01-11T07:41:58.922Z,22.38
2024-01-11T07:44:25.622Z,19.58
2024-01-11T07:46:54.547Z,20.83
2024-01-11T07:49:22.883Z,16.08
2024-01-11T07:51:50.462Z,17.73
2024-01-11T07:54:17.179Z,22.35
2024-01-11T07:56:44.222Z,19.88
2024-01-11T07:59:16.380Z,23.98
2024-01-11T08:01:43.312Z,19.92
2024-01-11T08:04:10.418Z,17.13
2024-01-11T08:06:37.107Z,18.10
2024-01-11T08:09:06.211Z,22.38
2024-01-11T08:11:36.622Z,19.75
2024-01-11T08:14:07.357Z,21.45
2024-01-11T08:16:34.415Z,23.27
2024-01-11T08:19:02.439Z,19.17
2024-01-11T08:21:29.976Z,22.55
2024-01-11T08:24:00.609Z,21.13
2024-01-11T08:26:31.623Z,20.35
2024-01-11T08:29:00.049Z,23.35
2024-01-11T08:31:28.055Z,20.02
2024-01-11T08:33:56.239Z,24.80
2024-01-11T08:36:23.305Z,20.25
2024-01-11T08:38:51.493Z,20.70
2024-01-11T08:41:18.270Z,21.23
2024-01-11T08:43:45.003Z,20.90
2024-01-11T08:46:11.710Z,20.70
2024-01-11T08:48:38.719Z,18.38
2024-01-11T08:51:07.671Z,19.80
2024-01-11T08:53:34.448Z,18.77
2024-01-11T08:56:01.342Z,25.30
2024-01-11T08:58:28.638Z,17.63
2024-01-11T09:00:55.462Z,18.67
2024-01-11T09:03:22.474Z,24.30
2024-01-11T09:05:49.518Z,20.65
2024-01-11T09:08:16.338Z,18.75
2024-01-11T09:10:43.266Z,22.67
2024-01-11T09:13:11.706Z,18.73
2024-01-11T09:15:39.613Z,23.55
2024-01-11T09:18:06.633Z,20.98
2024-01-11T09:20:35.748Z,22.20
2024-01-11T09:23:05.318Z,19.77
2024-01-11T09:25:32.237Z,24.50
2024-01-11T09:27:58.951Z,24.00
2024-01-11T09:30:29.044Z,23.05
2024-01-11T09:32:57.165Z,23.60
2024-01-11T09:35:24.824Z,26.83
2024-01-11T09:37:52.432Z,22.13
2024-01-11T09:40:20.203Z,26.23
2024-01-11T09:42:47.027Z,32.47
2024-01-11T09:45:17.315Z,28.88
2024-01-11T09:47:47.475Z,22.52
2024-01-11T09:50:19.585Z,26.17
2024-01-11T09:52:51.223Z,26.27
2024-01-11T09:55:19.032Z,30.95
2024-01-11T10:00:24.045Z,24.00
2024-01-11T10:02:51.176Z,23.10
2024-01-11T10:05:19.253Z,30.20
2024-01-11T10:07:47.220Z,32.97
2024-01-11T10:10:16.799Z,24.92
2024-01-11T10:12:44.226Z,35.95
2024-01-11T10:15:12.087Z,31.02
2024-01-11T10:20:15.573Z,26.85
2024-01-11T10:22:43.268Z,27.92
2024-01-11T10:25:15.022Z,29.90
2024-01-11T10:27:45.916Z,26.88
2024-01-11T10:30:27.593Z,32.00
2024-01-11T10:32:55.206Z,30.73
2024-01-11T10:35:23.002Z,32.40
2024-01-11T10:37:55.156Z,31.92
2024-01-11T10:40:25.595Z,36.60
2024-01-11T10:42:53.554Z,31.75
2024-01-11T10:45:21.492Z,39.65
2024-01-11T10:48:03.706Z,29.90
2024-01-11T10:50:35.720Z,31.05
2024-01-11T10:53:20.905Z,30.55
2024-01-11T10:55:48.636Z,31.85
2024-01-11T10:58:17.707Z,32.90
2024-01-11T11:00:45.934Z,38.30
2024-01-11T11:03:13.948Z,30.42
2024-01-11T11:05:42.602Z,28.25
2024-01-11T11:08:11.036Z,31.30
2024-01-11T11:10:51.909Z,34.05
2024-01-11T11:13:19.450Z,36.20
2024-01-11T11:15:48.254Z,40.10
2024-01-11T11:18:15.319Z,33.90
2024-01-11T11:20:45.242Z,35.15
2024-01-11T11:23:15.146Z,33.85
2024-01-11T11:25:42.204Z,27.95
2024-01-11T11:28:09.208Z,36.75
2024-01-11T11:30:41.715Z,29.75
2024-01-11T11:33:25.905Z,42.55
2024-01-11T11:35:59.560Z,33.00
2024-01-11T11:38:31.169Z,33.33
2024-01-11T11:41:02.454Z,31.65
2024-01-11T11:43:30.675Z,40.88
2024-01-11T11:46:00.550Z,38.17
2024-01-11T11:48:33.047Z,37.78
2024-01-11T11:51:20.717Z,37.92
2024-01-11T11:53:52.430Z,40.80
2024-01-11T11:56:21.702Z,36.58
2024-01-11T11:58:49.713Z,33.13
2024-01-11T12:01:18.764Z,36.75
2024-01-11T12:03:53.411Z,37.90
2024-01-11T12:06:22.138Z,40.60
2024-01-11T12:08:50.113Z,43.63
2024-01-11T12:11:21.834Z,37.35
2024-01-11T12:13:50.310Z,39.40
2024-01-11T12:16:20.376Z,39.05
2024-01-11T12:18:47.207Z,42.85
2024-01-11T12:21:13.898Z,38.03
2024-01-11T12:23:43.375Z,42.20
2024-01-11T12:26:15.303Z,33.10
2024-01-11T12:28:43.997Z,37.17
2024-01-11T12:31:11.220Z,40.58
2024-01-11T12:33:40.286Z,39.60
2024-01-11T12:36:09.180Z,39.92
2024-01-11T12:38:36.901Z,30.77
2024-01-11T12:41:07.450Z,32.13
2024-01-11T12:43:36.093Z,42.03
2024-01-11T12:46:04.019Z,40.65
2024-01-11T12:48:32.998Z,41.83
2024-01-11T12:51:10.479Z,46.13
2024-01-11T12:53:47.192Z,40.03
2024-01-11T12:56:17.183Z,37.83
2024-01-11T12:58:44.192Z,42.20
2024-01-11T13:01:12.035Z,42.10
2024-01-11T13:03:40.839Z,39.58
2024-01-11T13:06:08.058Z,38.78
2024-01-11T13:08:37.839Z,38.33
2024-01-11T13:11:08.545Z,38.70
2024-01-11T13:13:36.240Z,40.83
2024-01-11T13:18:44.250Z,37.70
2024-01-11T13:21:11.478Z,40.40
2024-01-11T13:23:39.624Z,40.80
2024-01-11T13:26:07.953Z,35.90
2024-01-11T13:28:35.103Z,37.78
2024-01-11T13:31:03.657Z,40.28
2024-01-11T13:33:30.537Z,35.13
2024-01-11T13:35:57.587Z,38.55
2024-01-11T13:38:27.100Z,38.33
2024-01-11T13:40:54.818Z,36.85
2024-01-11T13:43:21.596Z,35.70
2024-01-11T13:45:48.696Z,35.35
2024-01-11T13:48:15.592Z,34.47
2024-01-11T13:50:42.445Z,43.03
2024-01-11T13:53:09.316Z,39.25
2024-01-11T13:55:40.126Z,41.08
2024-01-11T13:58:07.947Z,36.08
2024-01-11T14:00:34.923Z,46.42
2024-01-11T14:03:02.923Z,41.40
2024-01-11T14:05:30.105Z,39.78
2024-01-11T14:08:00.563Z,38.92
2024-01-11T14:10:29.798Z,38.20
2024-01-11T14:12:56.800Z,47.08
2024-01-11T14:15:24.297Z,33.40
2024-01-11T14:17:53.249Z,40.58
2024-01-11T14:20:20.680Z,41.95
2024-01-11T14:22:54.286Z,37.17
2024-01-11T14:25:22.419Z,34.75
2024-01-11T14:27:50.350Z,41.20
2024-01-11T14:30:18.081Z,40.05
2024-01-11T14:35:14.949Z,36.63
2024-01-11T14:37:44.186Z,38.80
2024-01-11T14:40:14.276Z,42.35
2024-01-11T14:42:42.626Z,38.90
2024-01-11T14:45:09.800Z,42.97
2024-01-11T14:47:37.167Z,50.35
2024-01-11T14:52:40.245Z,40.90
2024-01-11T14:55:08.293Z,44.15
2024-01-11T14:57:38.317Z,39.63
2024-01-11T15:00:05.953Z,43.50
2024-01-11T15:02:36.591Z,41.80
2024-01-11T15:07:30.349Z,39.58
2024-01-11T15:09:57.088Z,37.05
2024-01-11T15:12:23.802Z,45.10
2024-01-11T15:14:52.368Z,43.40
2024-01-11T15:17:19.902Z,46.20
2024-01-11T15:22:15.048Z,31.67
2024-01-11T15:24:43.950Z,38.50
2024-01-11T15:27:11.680Z,37.63
2024-01-11T15:29:39.103Z,32.85
2024-01-11T15:32:06.380Z,38.22
2024-01-11T15:34:33.381Z,37.92
2024-01-11T15:37:03.837Z,36.50
2024-01-11T15:39:31.645Z,40.40
2024-01-11T15:42:05.057Z,38.28
2024-01-11T15:44:33.208Z,42.75
2024-01-11T15:47:02.910Z,39.08
2024-01-11T15:49:29.743Z,35.85
2024-01-11T15:51:57.407Z,47.30
2024-01-11T15:54:24.131Z,43.03
2024-01-11T15:56:52.100Z,42.28
2024-01-11T15:59:19.175Z,39.28
2024-01-11T16:01:56.232Z,40.78
2024-01-11T16:04:30.328Z,37.65
2024-01-11T16:06:57.514Z,38.35
2024-01-11T16:09:24.865Z,35.42
2024-01-11T16:11:52.065Z,38.72
2024-01-11T16:14:19.125Z,45.25
2024-01-11T16:16:46.886Z,41.30
2024-01-11T16:19:13.756Z,40.45
2024-01-11T16:21:40.687Z,42.45
2024-01-11T16:24:07.937Z,41.63
2024-01-11T16:26:34.765Z,41.63
2024-01-11T16:29:01.709Z,41.40
2024-01-11T16:31:30.254Z,39.30
2024-01-11T16:33:57.658Z,44.72
2024-01-11T16:36:25.006Z,36.63
2024-01-11T16:38:52.002Z,38.75
2024-01-11T16:41:19.057Z,46.35
2024-01-11T16:43:45.800Z,40.10
2024-01-11T16:46:23.504Z,37.15
2024-01-11T16:48:51.491Z,38.60
2024-01-11T16:51:18.385Z,43.95
2024-01-11T16:53:45.394Z,45.85
2024-01-11T16:56:12.375Z,45.45
2024-01-11T16:58:39.868Z,47.53
2024-01-11T17:01:06.691Z,40.17
2024-01-11T17:03:33.670Z,35.70
2024-01-11T17:06:00.580Z,36.78
2024-01-11T17:08:27.230Z,38.17
2024-01-11T17:10:53.825Z,39.58
2024-01-11T17:13:20.667Z,34.42
2024-01-11T17:15:47.537Z,41.35
2024-01-11T17:18:14.969Z,30.20
2024-01-11T17:20:43.370Z,43.30
2024-01-11T17:23:10.278Z,34.67
2024-01-11T17:25:37.091Z,36.50
2024-01-11T17:28:06.886Z,37.30
2024-01-11T17:30:33.524Z,33.08
2024-01-11T17:33:00.391Z,30.08
2024-01-11T17:35:27.142Z,29.55
2024-01-11T17:37:53.822Z,35.28
2024-01-11T17:40:20.483Z,34.47
2024-01-11T17:42:47.532Z,32.42
2024-01-11T17:45:14.398Z,29.83
2024-01-11T17:47:43.344Z,29.52
2024-01-11T17:50:10.346Z,28.70
2024-01-11T17:52:37.828Z,30.40
2024-01-11T17:55:06.009Z,33.05
2024-01-11T17:57:32.597Z,32.97
2024-01-11T18:00:00.780Z,33.90
2024-01-11T18:02:27.769Z,30.33
2024-01-11T18:04:54.473Z,33.25
2024-01-11T18:07:23.761Z,29.55
2024-01-11T18:09:53.704Z,32.80
2024-01-11T18:12:23.456Z,30.02
2024-01-11T18:14:52.965Z,33.40
2024-01-11T18:17:19.739Z,33.70
2024-01-11T18:19:46.444Z,30.63
2024-01-11T18:22:13.098Z,30.85
2024-01-11T18:24:43.034Z,26.65
2024-01-11T18:27:11.329Z,33.08
2024-01-11T18:29:38.090Z,22.27
2024-01-11T18:32:05.647Z,30.23
2024-01-11T18:37:03.786Z,27.02
2024-01-11T18:39:30.477Z,30.55
2024-01-11T18:41:58.990Z,30.35
2024-01-11T18:44:27.069Z,26.63
2024-01-11T18:49:35.249Z,30.23
2024-01-11T18:52:01.934Z,30.45
2024-01-11T18:54:28.561Z,27.92
2024-01-11T18:56:55.569Z,29.90
2024-01-11T18:59:23.684Z,34.78
2024-01-11T19:01:58.296Z,30.38
2024-01-11T19:07:06.541Z,26.63
2024-01-11T19:09:34.759Z,24.88
2024-01-11T19:12:02.157Z,23.25
2024-01-11T19:14:29.690Z,29.80
2024-01-11T19:16:56.715Z,27.42
2024-01-11T19:19:23.801Z,29.05
2024-01-11T19:21:50.851Z,26.15
2024-01-11T19:24:17.647Z,27.30
2024-01-11T19:26:56.663Z,32.22
2024-01-11T19:29:25.141Z,33.53
2024-01-11T19:31:51.862Z,31.00
2024-01-11T19:34:18.514Z,33.95
2024-01-11T19:36:52.842Z,25.35
2024-01-11T19:39:21.114Z,26.88
2024-01-11T19:41:48.062Z,24.75
2024-01-11T19:44:15.078Z,23.75
2024-01-11T19:49:26.177Z,31.83
2024-01-11T19:51:53.124Z,23.75
2024-01-11T19:54:23.470Z,28.33
2024-01-11T19:56:53.118Z,24.92
2024-01-11T19:59:22.529Z,21.77
2024-01-11T20:01:50.863Z,25.98
2024-01-11T20:04:19.368Z,25.02
2024-01-11T20:06:48.810Z,25.77
2024-01-11T20:09:19.319Z,23.52
2024-01-11T20:11:47.646Z,25.48
2024-01-11T20:14:16.571Z,24.75
2024-01-11T20:16:44.181Z,21.95
2024-01-11T20:19:12.464Z,25.80
2024-01-11T20:21:39.322Z,23.65
2024-01-11T20:24:06.877Z,32.22
2024-01-11T20:26:38.975Z,28.27
2024-01-11T20:29:06.116Z,23.13
2024-01-11T20:31:32.876Z,24.73
2024-01-11T20:34:03.616Z,26.48
2024-01-11T20:36:31.620Z,23.88
2024-01-11T20:44:06.147Z,21.67
2024-01-11T20:46:33.264Z,26.08
2024-01-11T20:49:01.053Z,21.90
2024-01-11T20:51:27.861Z,22.30
2024-01-11T20:53:57.761Z,22.10
2024-01-11T20:56:24.921Z,27.48
2024-01-11T20:58:51.976Z,21.73
2024-01-11T21:01:18.809Z,24.17
2024-01-11T21:03:45.564Z,22.77
2024-01-11T21:06:14.457Z,23.60
2024-01-11T21:08:41.393Z,24.88
2024-01-11T21:11:09.216Z,26.08
2024-01-11T21:13:36.423Z,26.20
2024-01-11T21:16:04.247Z,26.73
2024-01-11T21:18:31.302Z,35.80
2024-01-11T21:21:00.503Z,30.80
2024-01-11T21:23:27.276Z,28.23
2024-01-11T21:25:53.960Z,24.33
2024-01-11T21:28:20.683Z,19.83
2024-01-11T21:30:47.640Z,24.67
2024-01-11T21:33:16.438Z,22.88
2024-01-11T21:35:44.509Z,22.27
2024-01-11T21:38:11.596Z,20.23
2024-01-11T21:40:40.974Z,23.08
2024-01-11T21:43:08.820Z,23.23
2024-01-11T21:45:35.580Z,19.50
2024-01-11T21:48:02.277Z,17.05
2024-01-11T21:50:31.948Z,20.73
2024-01-11T21:53:06.668Z,19.13
2024-01-11T21:58:00.884Z,17.25
2024-01-11T22:00:27.508Z,17.73
2024-01-11T22:02:54.252Z,15.02
2024-01-11T22:05:20.948Z,14.23
2024-01-11T22:07:47.706Z,17.05
2024-01-11T22:10:15.701Z,16.95
2024-01-11T22:12:42.338Z,16.75
2024-01-11T22:15:10.211Z,17.25
2024-01-11T22:17:37.042Z,19.88
2024-01-11T22:20:07.418Z,17.55
2024-01-11T22:22:34.434Z,18.73
2024-01-11T22:25:01.061Z,17.27
2024-01-11T22:27:28.861Z,17.33
2024-01-11T22:29:56.454Z,19.25
2024-01-11T22:32:23.304Z,18.00
2024-01-11T22:34:50.176Z,16.00
2024-01-11T22:37:16.971Z,16.48
2024-01-11T22:39:45.571Z,19.02
2024-01-11T22:42:12.470Z,18.52
2024-01-11T22:44:39.254Z,18.30
2024-01-11T22:47:06.483Z,16.70
2024-01-11T22:49:33.554Z,16.83
2024-01-11T22:52:04.342Z,16.98
2024-01-11T22:54:31.256Z,19.92
2024-01-11T22:56:58.274Z,16.67
2024-01-11T22:59:28.147Z,17.30
2024-01-11T23:02:00.006Z,14.68
2024-01-11T23:04:26.806Z,16.17
2024-01-11T23:06:53.552Z,17.67
2024-01-11T23:09:21.073Z,13.65
2024-01-11T23:11:50.030Z,17.95
2024-01-11T23:14:20.004Z,14.45
2024-01-11T23:16:46.932Z,18.48
2024-01-11T23:19:14.685Z,18.35
2024-01-11T23:21:43.263Z,16.40
2024-01-11T23:24:09.974Z,18.75
2024-01-11T23:26:37.165Z,19.25
2024-01-11T23:29:03.964Z,20.48
2024-01-11T23:31:30.937Z,17.20
2024-01-11T23:34:00.805Z,17.15
2024-01-11T23:36:27.876Z,14.13
2024-01-11T23:38:54.726Z,16.23
2024-01-11T23:41:21.872Z,17.95
2024-01-11T23:43:49.806Z,19.55
2024-01-11T23:46:16.512Z,18.98
2024-01-11T23:48:43.293Z,19.08
2024-01-11T23:51:10.368Z,16.27
2024-01-11T23:53:37.076Z,15.93
2024-01-11T23:56:04.959Z,13.07
2024-01-11T23:58:31.733Z,19.08
